Time;durP1;ratioP1;P1;durP2;ratioP2;P2;SDS_P1;SDS_P2;PMS_P1;PMS_P2;Temp;Humidity;BMP_temperature;BMP_pressure;BME280_temperature;BME280_humidity;BME280_pressure;Samples;Min_cycle;Max_cycle;Signal;HPM_P1;HPM_P2
2022/02/23 00:01:31;;;;;;;19.38;3.22;;;;;;;;;;5064202;28;20020;-60
2022/02/23 00:03:59;;;;;;;15.63;3.25;;;;;;;;;;5061640;28;20047;-60
2022/02/23 00:06:25;;;;;;;14.95;2.55;;;;;;;;;;5063242;28;20464;-60
2022/02/23 00:08:51;;;;;;;36.58;2.95;;;;;;;;;;5055973;28;20032;-60
2022/02/23 00:11:16;;;;;;;27.48;3.10;;;;;;;;;;5062473;28;20035;-60
2022/02/23 00:13:42;;;;;;;15.30;2.30;;;;;;;;;;5060834;28;20020;-60
2022/02/23 00:16:08;;;;;;;20.65;3.08;;;;;;;;;;5057723;28;20047;-60
2022/02/23 00:18:34;;;;;;;20.00;2.45;;;;;;;;;;5057259;28;21688;-61
2022/02/23 00:21:00;;;;;;;28.80;2.92;;;;;;;;;;5058658;28;20487;-60
2022/02/23 00:23:25;;;;;;;26.75;3.47;;;;;;;;;;5056870;28;20449;-60
2022/02/23 00:25:51;;;;;;;18.77;2.85;;;;;;;;;;5054422;28;20040;-60
2022/02/23 00:28:16;;;;;;;13.15;2.08;;;;;;;;;;5054803;28;20573;-60
2022/02/23 00:30:42;;;;;;;18.08;2.42;;;;;;;;;;5066380;28;20040;-60
2022/02/23 00:33:08;;;;;;;15.73;2.22;;;;;;;;;;5058105;28;20039;-60
2022/02/23 00:35:34;;;;;;;18.35;2.45;;;;;;;;;;5060819;28;20043;-60
2022/02/23 00:38:00;;;;;;;21.75;2.80;;;;;;;;;;5063779;28;20058;-59
2022/02/23 00:40:25;;;;;;;22.88;2.85;;;;;;;;;;5059242;28;20028;-59
2022/02/23 00:42:53;;;;;;;18.90;2.78;;;;;;;;;;5062248;28;20437;-59
2022/02/23 00:45:19;;;;;;;16.80;2.75;;;;;;;;;;5061327;28;20036;-59
2022/02/23 00:47:45;;;;;;;20.25;2.33;;;;;;;;;;5059893;28;20160;-60
2022/02/23 00:50:10;;;;;;;17.58;2.55;;;;;;;;;;5059427;28;20127;-60
2022/02/23 00:52:36;;;;;;;17.95;2.30;;;;;;;;;;5061216;28;20039;-60
2022/02/23 00:55:02;;;;;;;41.55;3.03;;;;;;;;;;5061806;28;20202;-60
2022/02/23 00:57:28;;;;;;;22.45;2.28;;;;;;;;;;5061338;28;20517;-60
2022/02/23 00:59:53;;;;;;;19.13;2.28;;;;;;;;;;5062865;28;20083;-60
2022/02/23 01:02:20;;;;;;;16.30;2.88;;;;;;;;;;5066405;28;20047;-60
2022/02/23 01:04:45;;;;;;;17.33;2.67;;;;;;;;;;5058359;28;20483;-60
2022/02/23 01:07:11;;;;;;;14.05;1.92;;;;;;;;;;5059426;28;20032;-60
2022/02/23 01:09:37;;;;;;;24.23;2.67;;;;;;;;;;5061547;28;20032;-61
2022/02/23 01:12:02;;;;;;;17.95;2.35;;;;;;;;;;5056458;28;20032;-60
2022/02/23 01:14:28;;;;;;;12.52;1.77;;;;;;;;;;5061727;28;20044;-60
2022/02/23 01:16:53;;;;;;;13.05;1.67;;;;;;;;;;5054642;28;20029;-61
2022/02/23 01:19:19;;;;;;;11.93;1.70;;;;;;;;;;5063287;28;20031;-60
2022/02/23 01:21:45;;;;;;;18.90;2.67;;;;;;;;;;5059863;28;20039;-60
2022/02/23 01:24:10;;;;;;;16.83;2.42;;;;;;;;;;5059941;28;20071;-59
2022/02/23 01:26:35;;;;;;;15.60;2.22;;;;;;;;;;5053333;28;20530;-60
2022/02/23 01:29:01;;;;;;;15.63;2.47;;;;;;;;;;5058018;28;20058;-60
2022/02/23 01:31:27;;;;;;;17.92;2.55;;;;;;;;;;5060598;28;20492;-60
2022/02/23 01:33:52;;;;;;;13.55;1.75;;;;;;;;;;5056933;28;20040;-60
2022/02/23 01:36:17;;;;;;;18.52;2.35;;;;;;;;;;5059890;28;20536;-61
2022/02/23 01:38:43;;;;;;;18.15;3.60;;;;;;;;;;5068343;28;20251;-60
2022/02/23 01:41:09;;;;;;;13.98;1.73;;;;;;;;;;5055307;28;20024;-60
2022/02/23 01:43:34;;;;;;;18.08;2.58;;;;;;;;;;5059008;28;20029;-60
2022/02/23 01:46:00;;;;;;;10.90;1.63;;;;;;;;;;5063380;28;20814;-60
2022/02/23 01:48:25;;;;;;;13.88;2.00;;;;;;;;;;5062121;28;20253;-61
2022/02/23 01:50:51;;;;;;;12.93;1.83;;;;;;;;;;5059006;28;20028;-60
2022/02/23 01:53:17;;;;;;;15.65;1.63;;;;;;;;;;5059002;28;20036;-60
2022/02/23 01:55:43;;;;;;;16.48;2.30;;;;;;;;;;5063327;28;20456;-60
2022/02/23 01:58:09;;;;;;;14.02;2.20;;;;;;;;;;5057997;28;20056;-60
2022/02/23 02:00:34;;;;;;;12.15;1.98;;;;;;;;;;5060261;28;20490;-58
2022/02/23 02:03:00;;;;;;;7.97;2.25;;;;;;;;;;5062087;28;20494;-60
2022/02/23 02:05:25;;;;;;;13.95;1.77;;;;;;;;;;5060261;28;20312;-59
2022/02/23 02:07:51;;;;;;;11.93;1.05;;;;;;;;;;5054273;28;20041;-60
2022/02/23 02:10:18;;;;;;;15.45;2.03;;;;;;;;;;5057891;28;20025;-59
2022/02/23 02:12:43;;;;;;;10.15;1.70;;;;;;;;;;5057614;28;20567;-59
2022/02/23 02:15:09;;;;;;;10.15;1.35;;;;;;;;;;5057682;28;20040;-60
2022/02/23 02:17:36;;;;;;;6.22;1.23;;;;;;;;;;5064003;28;20054;-59
2022/02/23 02:20:03;;;;;;;9.52;1.38;;;;;;;;;;5058018;28;20032;-59
2022/02/23 02:22:29;;;;;;;12.38;1.35;;;;;;;;;;5062119;28;20024;-59
2022/02/23 02:24:56;;;;;;;11.73;2.38;;;;;;;;;;5060213;28;20043;-59
2022/02/23 02:27:22;;;;;;;7.10;1.75;;;;;;;;;;5054618;28;20473;-60
2022/02/23 02:29:47;;;;;;;14.35;1.38;;;;;;;;;;5065840;28;20388;-60
2022/02/23 02:32:14;;;;;;;11.23;2.28;;;;;;;;;;5057914;28;20505;-60
2022/02/23 02:34:40;;;;;;;18.45;2.08;;;;;;;;;;5059540;28;20507;-60
2022/02/23 02:37:06;;;;;;;16.27;2.40;;;;;;;;;;5056942;28;20068;-60
2022/02/23 02:39:34;;;;;;;15.90;1.63;;;;;;;;;;5061597;28;20115;-61
2022/02/23 02:42:00;;;;;;;12.55;1.30;;;;;;;;;;5058098;28;20044;-60
2022/02/23 02:44:26;;;;;;;8.80;1.30;;;;;;;;;;5059643;28;20099;-60
2022/02/23 02:46:51;;;;;;;16.88;2.17;;;;;;;;;;5058053;28;20163;-60
2022/02/23 02:49:17;;;;;;;8.95;2.08;;;;;;;;;;5060194;28;20032;-60
2022/02/23 02:51:43;;;;;;;11.48;1.38;;;;;;;;;;5060067;28;20487;-60
2022/02/23 02:54:09;;;;;;;9.70;1.63;;;;;;;;;;5064706;28;20415;-60
2022/02/23 02:56:36;;;;;;;13.43;1.35;;;;;;;;;;5057518;28;20033;-60
2022/02/23 02:59:02;;;;;;;7.13;1.27;;;;;;;;;;5061583;28;20068;-60
2022/02/23 03:01:29;;;;;;;11.40;1.48;;;;;;;;;;5059578;28;20094;-60
2022/02/23 03:03:56;;;;;;;15.98;1.75;;;;;;;;;;5065986;28;20020;-60
2022/02/23 03:06:22;;;;;;;8.35;1.40;;;;;;;;;;5064178;28;20035;-59
2022/02/23 03:08:50;;;;;;;6.72;1.30;;;;;;;;;;5066882;28;20406;-59
2022/02/23 03:11:15;;;;;;;4.18;1.13;;;;;;;;;;5058918;28;20028;-59
2022/02/23 03:13:42;;;;;;;9.23;1.23;;;;;;;;;;5062128;28;20465;-60
2022/02/23 03:16:09;;;;;;;9.02;1.05;;;;;;;;;;5054765;28;20051;-59
2022/02/23 03:18:34;;;;;;;6.78;1.38;;;;;;;;;;5061330;28;20043;-59
2022/02/23 03:21:01;;;;;;;8.80;1.30;;;;;;;;;;5056006;28;20048;-59
2022/02/23 03:23:28;;;;;;;9.50;1.38;;;;;;;;;;5064199;28;20547;-59
2022/02/23 03:25:53;;;;;;;5.10;1.00;;;;;;;;;;5063356;28;20455;-59
2022/02/23 03:28:20;;;;;;;10.23;1.30;;;;;;;;;;5058812;28;20045;-59
2022/02/23 03:30:45;;;;;;;11.15;1.30;;;;;;;;;;5061401;28;20064;-59
2022/02/23 03:33:11;;;;;;;15.50;1.70;;;;;;;;;;5062005;28;20056;-59
2022/02/23 03:35:38;;;;;;;12.02;1.45;;;;;;;;;;5063523;28;20040;-59
2022/02/23 03:38:04;;;;;;;12.73;0.90;;;;;;;;;;5078265;28;20040;-60
2022/02/23 03:40:30;;;;;;;14.65;1.60;;;;;;;;;;5059401;28;20635;-60
2022/02/23 03:42:56;;;;;;;10.15;1.25;;;;;;;;;;5061852;28;20111;-60
2022/02/23 03:45:22;;;;;;;11.00;1.30;;;;;;;;;;5063488;28;20215;-59
2022/02/23 03:47:47;;;;;;;6.82;1.00;;;;;;;;;;5062213;28;20042;-60
2022/02/23 03:50:13;;;;;;;2.90;0.88;;;;;;;;;;5058801;28;20032;-59
2022/02/23 03:52:40;;;;;;;10.85;1.30;;;;;;;;;;5061440;28;20499;-60
2022/02/23 03:55:06;;;;;;;18.58;1.70;;;;;;;;;;5061133;28;20129;-59
2022/02/23 03:57:32;;;;;;;11.80;1.52;;;;;;;;;;5057795;28;20116;-60
2022/02/23 03:59:58;;;;;;;5.50;1.15;;;;;;;;;;5058743;28;20396;-60
2022/02/23 04:02:23;;;;;;;19.48;2.20;;;;;;;;;;5057523;28;20044;-60
2022/02/23 04:04:49;;;;;;;11.25;0.68;;;;;;;;;;5056383;28;20111;-60
2022/02/23 04:07:15;;;;;;;11.13;1.42;;;;;;;;;;5057153;28;20564;-60
2022/02/23 04:09:40;;;;;;;12.48;1.92;;;;;;;;;;5064900;28;20032;-60
2022/02/23 04:12:06;;;;;;;9.10;1.85;;;;;;;;;;5064010;28;20097;-60
2022/02/23 04:14:31;;;;;;;12.90;1.80;;;;;;;;;;5062761;28;20037;-61
2022/02/23 04:16:57;;;;;;;13.90;2.22;;;;;;;;;;5062431;28;20040;-60
2022/02/23 04:19:23;;;;;;;9.95;1.35;;;;;;;;;;5062127;28;20380;-61
2022/02/23 04:21:48;;;;;;;8.02;1.00;;;;;;;;;;5062793;28;20111;-60
2022/02/23 04:24:14;;;;;;;10.63;0.95;;;;;;;;;;5067418;28;20043;-60
2022/02/23 04:26:39;;;;;;;14.07;1.73;;;;;;;;;;5060619;28;20081;-60
2022/02/23 04:29:05;;;;;;;7.68;1.15;;;;;;;;;;5060060;28;20401;-60
2022/02/23 04:31:32;;;;;;;15.90;1.25;;;;;;;;;;5065206;28;20717;-60
2022/02/23 04:33:58;;;;;;;16.98;1.55;;;;;;;;;;5064475;28;20024;-60
2022/02/23 04:36:24;;;;;;;6.65;1.15;;;;;;;;;;5057980;28;21004;-59
2022/02/23 04:38:49;;;;;;;6.20;1.15;;;;;;;;;;5056941;28;20024;-59
2022/02/23 04:41:15;;;;;;;15.25;1.27;;;;;;;;;;5059158;28;20025;-59
2022/02/23 04:43:41;;;;;;;11.13;1.10;;;;;;;;;;5068904;28;20377;-59
2022/02/23 04:46:11;;;;;;;9.05;1.23;;;;;;;;;;5056495;28;20040;-60
2022/02/23 04:48:38;;;;;;;9.30;1.30;;;;;;;;;;5061431;28;23538;-60
2022/02/23 04:51:04;;;;;;;9.48;1.20;;;;;;;;;;5055046;28;20031;-60
2022/02/23 04:53:29;;;;;;;8.73;1.02;;;;;;;;;;5060171;28;20041;-60
2022/02/23 04:55:55;;;;;;;10.32;1.35;;;;;;;;;;5063089;28;20040;-60
2022/02/23 04:58:20;;;;;;;13.98;1.40;;;;;;;;;;5060112;28;20288;-59
2022/02/23 05:00:46;;;;;;;8.38;1.15;;;;;;;;;;5061275;28;20570;-61
2022/02/23 05:03:11;;;;;;;9.27;1.45;;;;;;;;;;5061867;28;20036;-61
2022/02/23 05:05:37;;;;;;;10.13;1.40;;;;;;;;;;5056489;28;20462;-61
2022/02/23 05:08:03;;;;;;;8.10;1.13;;;;;;;;;;5055889;28;20032;-59
2022/02/23 05:10:28;;;;;;;11.82;1.30;;;;;;;;;;5059907;28;20406;-59
2022/02/23 05:12:54;;;;;;;16.50;1.60;;;;;;;;;;5059951;28;20093;-59
2022/02/23 05:15:19;;;;;;;15.38;1.77;;;;;;;;;;5054857;28;20032;-60
2022/02/23 05:17:45;;;;;;;14.65;1.23;;;;;;;;;;5058631;28;20123;-58
2022/02/23 05:20:11;;;;;;;12.20;1.35;;;;;;;;;;5060143;28;20039;-60
2022/02/23 05:22:36;;;;;;;11.90;1.40;;;;;;;;;;5058847;28;20043;-60
2022/02/23 05:25:03;;;;;;;9.75;1.05;;;;;;;;;;5054049;28;20063;-59
2022/02/23 05:27:28;;;;;;;10.35;1.48;;;;;;;;;;5061988;28;20039;-59
2022/02/23 05:29:54;;;;;;;5.03;0.95;;;;;;;;;;5059960;28;20033;-60
2022/02/23 05:32:21;;;;;;;13.25;1.58;;;;;;;;;;5057490;28;20048;-60
2022/02/23 05:34:46;;;;;;;10.15;1.30;;;;;;;;;;5054821;28;20715;-60
2022/02/23 05:37:12;;;;;;;14.48;1.50;;;;;;;;;;5060560;28;20028;-60
2022/02/23 05:39:38;;;;;;;12.48;1.45;;;;;;;;;;5058854;28;20426;-59
2022/02/23 05:42:03;;;;;;;20.95;1.65;;;;;;;;;;5059776;28;20079;-60
2022/02/23 05:44:29;;;;;;;9.50;1.52;;;;;;;;;;5061162;28;20028;-62
2022/02/23 05:46:55;;;;;;;17.48;1.80;;;;;;;;;;5058809;28;20485;-59
2022/02/23 05:49:20;;;;;;;13.15;1.27;;;;;;;;;;5055154;28;20241;-59
2022/02/23 05:51:49;;;;;;;10.82;1.48;;;;;;;;;;5064810;28;20063;-59
2022/02/23 05:54:16;;;;;;;7.35;1.25;;;;;;;;;;5058276;28;20048;-60
2022/02/23 05:56:42;;;;;;;10.40;1.17;;;;;;;;;;5058190;28;20024;-60
2022/02/23 05:59:09;;;;;;;6.63;1.60;;;;;;;;;;5063303;28;20082;-59
2022/02/23 06:01:35;;;;;;;13.10;1.50;;;;;;;;;;5055537;28;20029;-59
2022/02/23 06:04:01;;;;;;;12.10;1.48;;;;;;;;;;5061214;28;20040;-59
2022/02/23 06:06:27;;;;;;;9.38;1.13;;;;;;;;;;5062891;28;20033;-59
2022/02/23 06:08:53;;;;;;;15.98;1.48;;;;;;;;;;5067204;28;20123;-60
2022/02/23 06:11:18;;;;;;;15.55;1.63;;;;;;;;;;5057238;28;20044;-60
2022/02/23 06:13:50;;;;;;;6.47;1.20;;;;;;;;;;5061755;28;20039;-60
2022/02/23 06:16:22;;;;;;;7.68;0.95;;;;;;;;;;5061769;28;20515;-60
2022/02/23 06:18:47;;;;;;;7.05;1.70;;;;;;;;;;5060045;28;20048;-59
2022/02/23 06:21:13;;;;;;;7.68;1.10;;;;;;;;;;5057381;28;20035;-60
2022/02/23 06:23:38;;;;;;;31.15;2.78;;;;;;;;;;5065154;28;20069;-60
2022/02/23 06:26:05;;;;;;;11.77;1.08;;;;;;;;;;5056892;28;20040;-60
2022/02/23 06:28:31;;;;;;;6.97;0.90;;;;;;;;;;5061361;28;20343;-60
2022/02/23 06:30:57;;;;;;;4.30;1.05;;;;;;;;;;5069228;28;20035;-60
2022/02/23 06:33:25;;;;;;;6.28;1.00;;;;;;;;;;5061565;28;20154;-60
2022/02/23 06:35:52;;;;;;;8.07;1.13;;;;;;;;;;5068872;28;20037;-60
2022/02/23 06:38:18;;;;;;;7.20;0.90;;;;;;;;;;5062848;28;20028;-61
2022/02/23 06:40:45;;;;;;;7.28;1.05;;;;;;;;;;5060017;28;20059;-61
2022/02/23 06:43:13;;;;;;;5.97;0.77;;;;;;;;;;5062748;28;20490;-61
2022/02/23 06:45:39;;;;;;;4.30;0.80;;;;;;;;;;5064660;28;20166;-60
2022/02/23 06:48:04;;;;;;;11.68;1.23;;;;;;;;;;5062846;28;20516;-61
2022/02/23 06:50:30;;;;;;;7.07;0.80;;;;;;;;;;5072181;28;20028;-59
2022/02/23 06:52:56;;;;;;;11.60;1.00;;;;;;;;;;5062902;28;20522;-59
2022/02/23 06:55:22;;;;;;;12.20;1.00;;;;;;;;;;5060894;28;20063;-59
2022/02/23 06:57:47;;;;;;;13.32;1.83;;;;;;;;;;5060887;28;20064;-61
2022/02/23 07:00:14;;;;;;;4.90;0.63;;;;;;;;;;5061627;28;20436;-59
2022/02/23 07:02:39;;;;;;;13.02;1.13;;;;;;;;;;5055910;28;20036;-60
2022/02/23 07:05:06;;;;;;;29.17;2.20;;;;;;;;;;5058814;28;20040;-60
2022/02/23 07:07:32;;;;;;;7.78;1.00;;;;;;;;;;5060602;28;20036;-59
2022/02/23 07:09:58;;;;;;;7.32;0.88;;;;;;;;;;5058158;28;20036;-60
2022/02/23 07:12:23;;;;;;;14.10;1.63;;;;;;;;;;5056354;28;20487;-59
2022/02/23 07:14:49;;;;;;;5.70;0.60;;;;;;;;;;5065510;28;20048;-60
2022/02/23 07:17:14;;;;;;;8.55;1.02;;;;;;;;;;5056819;28;20025;-59
2022/02/23 07:19:40;;;;;;;12.93;1.55;;;;;;;;;;5065772;28;20039;-60
2022/02/23 07:22:06;;;;;;;5.07;0.82;;;;;;;;;;5062480;28;20563;-60
2022/02/23 07:24:32;;;;;;;6.40;0.80;;;;;;;;;;5061142;28;20082;-59
2022/02/23 07:26:59;;;;;;;10.00;1.20;;;;;;;;;;5058798;28;20033;-59
2022/02/23 07:29:24;;;;;;;9.73;1.02;;;;;;;;;;5061020;28;21456;-59
2022/02/23 07:31:50;;;;;;;11.23;0.93;;;;;;;;;;5056322;28;20097;-60
2022/02/23 07:34:16;;;;;;;8.68;1.23;;;;;;;;;;5058896;28;20036;-60
2022/02/23 07:36:42;;;;;;;6.00;0.75;;;;;;;;;;5054270;28;20044;-59
2022/02/23 07:39:08;;;;;;;8.15;1.05;;;;;;;;;;5057468;28;20316;-59
2022/02/23 07:41:35;;;;;;;9.65;1.05;;;;;;;;;;5057276;28;20024;-59
2022/02/23 07:44:01;;;;;;;6.75;0.73;;;;;;;;;;5057009;28;20111;-59
2022/02/23 07:46:28;;;;;;;10.85;1.17;;;;;;;;;;5055182;28;20040;-62
2022/02/23 07:48:58;;;;;;;18.08;1.63;;;;;;;;;;5057027;28;20040;-59
2022/02/23 07:51:24;;;;;;;8.02;1.00;;;;;;;;;;5055966;28;20043;-62
2022/02/23 07:53:52;;;;;;;6.70;1.00;;;;;;;;;;5056804;28;20029;-62
2022/02/23 07:56:21;;;;;;;10.70;1.17;;;;;;;;;;5059113;28;20066;-61
2022/02/23 07:58:46;;;;;;;7.28;0.82;;;;;;;;;;5062412;28;20064;-61
2022/02/23 08:01:34;;;;;;;11.88;1.33;;;;;;;;;;5054160;28;20480;-59
2022/02/23 08:04:01;;;;;;;8.38;0.88;;;;;;;;;;5056292;28;20036;-59
2022/02/23 08:06:26;;;;;;;10.55;1.17;;;;;;;;;;5056001;28;20503;-59
2022/02/23 08:08:56;;;;;;;5.88;0.73;;;;;;;;;;5051800;28;20082;-60
2022/02/23 08:11:23;;;;;;;8.45;1.10;;;;;;;;;;5058830;28;20140;-60
2022/02/23 08:13:51;;;;;;;11.35;1.05;;;;;;;;;;5054862;28;20039;-60
2022/02/23 08:21:58;;;;;;;7.45;0.80;;;;;;;;;;5056866;28;20133;-61
2022/02/23 08:24:26;;;;;;;7.72;0.98;;;;;;;;;;5050092;28;20024;-59
2022/02/23 08:26:54;;;;;;;5.85;1.35;;;;;;;;;;5049961;28;20031;-59
2022/02/23 08:29:19;;;;;;;3.15;0.82;;;;;;;;;;5046761;28;20076;-59
2022/02/23 08:31:44;;;;;;;6.32;0.98;;;;;;;;;;5057136;28;20125;-59
2022/02/23 08:34:10;;;;;;;5.85;0.60;;;;;;;;;;5051189;28;20060;-59
2022/02/23 08:36:36;;;;;;;5.10;1.20;;;;;;;;;;5056216;28;20448;-60
2022/02/23 08:39:01;;;;;;;9.98;0.85;;;;;;;;;;5054467;28;20036;-61
2022/02/23 08:41:27;;;;;;;6.30;1.52;;;;;;;;;;5052347;28;20132;-59
2022/02/23 08:43:53;;;;;;;7.07;1.30;;;;;;;;;;5050132;28;20517;-60
2022/02/23 08:46:22;;;;;;;6.20;1.13;;;;;;;;;;5054436;28;20036;-58
2022/02/23 08:48:47;;;;;;;6.00;0.55;;;;;;;;;;5055955;28;20186;-60
2022/02/23 08:51:12;;;;;;;3.20;0.60;;;;;;;;;;5050966;28;20046;-60
2022/02/23 08:53:38;;;;;;;9.50;0.82;;;;;;;;;;5051932;28;20080;-61
2022/02/23 08:56:04;;;;;;;11.68;1.10;;;;;;;;;;5049295;28;20483;-60
2022/02/23 08:58:29;;;;;;;6.03;1.02;;;;;;;;;;5052260;28;20036;-61
2022/02/23 09:00:55;;;;;;;5.25;0.82;;;;;;;;;;5050726;28;20098;-61
2022/02/23 09:03:23;;;;;;;4.25;1.05;;;;;;;;;;5053045;28;20596;-61
2022/02/23 09:05:50;;;;;;;7.22;1.42;;;;;;;;;;5054356;28;20575;-61
2022/02/23 09:08:15;;;;;;;5.65;0.95;;;;;;;;;;5059669;28;20372;-59
2022/02/23 09:10:41;;;;;;;7.45;0.95;;;;;;;;;;5055577;28;20039;-59
2022/02/23 09:13:08;;;;;;;5.22;0.73;;;;;;;;;;5049909;28;23221;-60
2022/02/23 09:15:35;;;;;;;9.43;0.77;;;;;;;;;;5062617;28;20036;-60
2022/02/23 09:18:01;;;;;;;4.65;0.63;;;;;;;;;;5062460;28;20473;-59
2022/02/23 09:20:28;;;;;;;8.32;0.65;;;;;;;;;;5063083;28;20067;-59
2022/02/23 09:22:54;;;;;;;5.85;0.70;;;;;;;;;;5069572;28;20416;-59
2022/02/23 09:25:19;;;;;;;3.92;0.73;;;;;;;;;;5060433;28;20058;-60
2022/02/23 09:27:45;;;;;;;7.97;1.42;;;;;;;;;;5061486;28;20533;-59
2022/02/23 09:30:14;;;;;;;10.98;1.33;;;;;;;;;;5058892;28;20032;-59
2022/02/23 09:32:41;;;;;;;3.92;0.60;;;;;;;;;;5073810;28;20474;-59
2022/02/23 09:35:11;;;;;;;6.93;1.08;;;;;;;;;;5065742;28;20388;-59
2022/02/23 09:37:37;;;;;;;7.00;1.70;;;;;;;;;;5057084;28;20119;-59
2022/02/23 09:40:05;;;;;;;9.70;1.42;;;;;;;;;;5058643;28;20029;-60
2022/02/23 09:42:31;;;;;;;4.68;1.00;;;;;;;;;;5054890;28;20394;-59
2022/02/23 09:44:59;;;;;;;9.50;1.42;;;;;;;;;;5052553;28;20045;-58
2022/02/23 09:47:26;;;;;;;8.18;0.85;;;;;;;;;;5057211;28;20095;-59
2022/02/23 09:49:52;;;;;;;4.50;0.90;;;;;;;;;;5058486;28;20487;-60
2022/02/23 09:52:23;;;;;;;4.47;0.60;;;;;;;;;;5057604;28;20132;-60
2022/02/23 09:54:49;;;;;;;2.72;0.60;;;;;;;;;;5059189;28;20098;-60
2022/02/23 09:57:15;;;;;;;5.15;1.00;;;;;;;;;;5055640;28;20511;-60
2022/02/23 09:59:41;;;;;;;9.52;1.08;;;;;;;;;;5064452;28;20043;-60
2022/02/23 10:02:10;;;;;;;8.35;1.55;;;;;;;;;;5072345;28;20044;-59
2022/02/23 10:04:36;;;;;;;5.50;0.70;;;;;;;;;;5066164;28;20030;-59
2022/02/23 10:07:05;;;;;;;5.82;1.13;;;;;;;;;;5060148;28;20398;-59
2022/02/23 10:09:47;;;;;;;4.20;1.05;;;;;;;;;;5062556;28;20506;-59
2022/02/23 10:12:17;;;;;;;2.65;0.70;;;;;;;;;;5064073;28;20059;-61
2022/02/23 10:14:44;;;;;;;3.17;0.68;;;;;;;;;;5062753;28;20275;-62
2022/02/23 10:17:10;;;;;;;9.20;1.20;;;;;;;;;;5064319;28;20031;-60
2022/02/23 10:19:36;;;;;;;6.05;0.73;;;;;;;;;;5069590;28;20032;-59
2022/02/23 10:22:03;;;;;;;9.68;0.93;;;;;;;;;;5063553;28;20036;-59
2022/02/23 10:24:34;;;;;;;5.20;0.80;;;;;;;;;;5062871;28;20057;-59
2022/02/23 10:27:02;;;;;;;4.23;0.90;;;;;;;;;;5063041;28;20066;-60
2022/02/23 10:29:30;;;;;;;4.45;0.60;;;;;;;;;;5080965;28;20308;-60
2022/02/23 10:31:56;;;;;;;8.77;1.10;;;;;;;;;;5061104;28;20029;-60
2022/02/23 10:34:22;;;;;;;4.93;1.50;;;;;;;;;;5057931;28;20060;-58
2022/02/23 10:37:02;;;;;;;6.78;0.80;;;;;;;;;;5061408;28;20122;-60
2022/02/23 10:39:40;;;;;;;6.03;1.05;;;;;;;;;;5060413;28;20024;-59
2022/02/23 10:42:11;;;;;;;7.18;1.33;;;;;;;;;;5065354;28;20027;-59
2022/02/23 10:44:45;;;;;;;3.15;0.80;;;;;;;;;;5059298;28;20101;-59
2022/02/23 10:47:25;;;;;;;5.13;1.05;;;;;;;;;;5061261;28;20024;-60
2022/02/23 10:50:08;;;;;;;8.07;0.90;;;;;;;;;;5058271;28;20121;-61
2022/02/23 10:52:37;;;;;;;4.47;0.50;;;;;;;;;;5062458;28;20063;-61
2022/02/23 10:55:25;;;;;;;4.97;0.85;;;;;;;;;;5065106;28;20025;-58
2022/02/23 10:57:56;;;;;;;7.50;1.20;;;;;;;;;;5055597;28;20482;-60
2022/02/23 11:00:26;;;;;;;5.15;1.00;;;;;;;;;;5064796;28;20463;-59
2022/02/23 11:02:53;;;;;;;10.95;1.30;;;;;;;;;;5057886;28;20440;-59
2022/02/23 11:05:23;;;;;;;8.15;1.33;;;;;;;;;;5059043;28;20040;-60
2022/02/23 11:07:50;;;;;;;4.13;0.90;;;;;;;;;;5057243;28;20119;-59
2022/02/23 11:10:15;;;;;;;11.50;1.20;;;;;;;;;;5054407;28;20039;-61
2022/02/23 11:12:48;;;;;;;14.38;1.80;;;;;;;;;;5055529;28;20033;-61
2022/02/23 11:15:16;;;;;;;8.63;1.15;;;;;;;;;;5061781;28;20347;-60
2022/02/23 11:17:45;;;;;;;7.57;1.20;;;;;;;;;;5058883;28;20514;-61
2022/02/23 11:20:13;;;;;;;6.05;1.20;;;;;;;;;;5061053;28;20039;-60
2022/02/23 11:22:39;;;;;;;6.28;0.73;;;;;;;;;;5058382;28;20039;-60
2022/02/23 11:25:06;;;;;;;10.70;1.42;;;;;;;;;;5053941;28;20036;-61
2022/02/23 11:27:34;;;;;;;9.63;1.45;;;;;;;;;;5051296;28;20024;-60
2022/02/23 11:30:05;;;;;;;7.70;0.98;;;;;;;;;;5053282;28;20036;-61
2022/02/23 11:32:38;;;;;;;4.80;1.55;;;;;;;;;;5060614;28;20125;-61
2022/02/23 11:35:04;;;;;;;9.15;1.05;;;;;;;;;;5055237;28;20693;-62
2022/02/23 11:37:30;;;;;;;6.07;1.33;;;;;;;;;;5063495;28;20034;-59
2022/02/23 11:39:56;;;;;;;4.68;1.02;;;;;;;;;;5059772;28;20267;-62
2022/02/23 11:42:22;;;;;;;9.57;1.95;;;;;;;;;;5060356;28;20353;-62
2022/02/23 11:44:50;;;;;;;5.65;1.42;;;;;;;;;;5059235;28;20066;-60
2022/02/23 11:47:25;;;;;;;5.55;1.13;;;;;;;;;;5058334;28;20025;-61
2022/02/23 11:50:05;;;;;;;6.97;1.52;;;;;;;;;;5053777;28;20078;-61
2022/02/23 11:52:31;;;;;;;8.13;1.30;;;;;;;;;;5053069;28;20461;-62
2022/02/23 11:55:11;;;;;;;8.35;1.08;;;;;;;;;;5060118;28;20041;-60
2022/02/23 11:57:53;;;;;;;4.47;1.20;;;;;;;;;;5063640;28;20032;-60
2022/02/23 12:00:30;;;;;;;5.38;1.45;;;;;;;;;;5059893;28;20027;-61
2022/02/23 12:03:11;;;;;;;20.58;1.60;;;;;;;;;;5057207;28;20609;-62
2022/02/23 12:05:41;;;;;;;6.63;1.40;;;;;;;;;;5055988;28;20108;-61
2022/02/23 12:08:32;;;;;;;8.10;1.55;;;;;;;;;;5055785;28;20085;-60
2022/02/23 12:11:04;;;;;;;8.73;1.55;;;;;;;;;;5058381;28;20140;-60
2022/02/23 12:13:38;;;;;;;9.20;3.33;;;;;;;;;;5057089;28;20033;-60
2022/02/23 12:16:32;;;;;;;7.00;1.30;;;;;;;;;;5059133;28;20052;-60
2022/02/23 12:19:03;;;;;;;8.23;1.00;;;;;;;;;;5060108;28;20027;-61
2022/02/23 12:21:43;;;;;;;5.53;1.17;;;;;;;;;;5062339;28;20056;-61
2022/02/23 12:24:20;;;;;;;6.10;1.70;;;;;;;;;;5058081;28;20289;-61
2022/02/23 12:26:48;;;;;;;6.63;0.95;;;;;;;;;;5063883;28;20036;-62
2022/02/23 12:29:16;;;;;;;9.27;1.25;;;;;;;;;;5060421;28;20053;-61
2022/02/23 12:31:46;;;;;;;7.18;1.45;;;;;;;;;;5060032;28;20037;-60
2022/02/23 12:34:18;;;;;;;2.83;1.10;;;;;;;;;;5059372;28;20058;-60
2022/02/23 12:36:49;;;;;;;7.05;1.30;;;;;;;;;;5056274;28;20032;-61
2022/02/23 12:39:26;;;;;;;7.70;1.40;;;;;;;;;;5055986;28;20475;-58
2022/02/23 12:42:02;;;;;;;5.55;1.00;;;;;;;;;;5061969;28;20047;-61
2022/02/23 12:44:31;;;;;;;3.15;1.15;;;;;;;;;;5058898;28;20032;-60
2022/02/23 12:46:59;;;;;;;6.32;1.20;;;;;;;;;;5060427;28;20171;-60
2022/02/23 12:49:24;;;;;;;6.63;1.10;;;;;;;;;;5058856;28;20453;-60
2022/02/23 12:51:52;;;;;;;4.60;1.20;;;;;;;;;;5058884;28;20032;-62
2022/02/23 12:54:20;;;;;;;5.80;1.17;;;;;;;;;;5058470;28;20035;-60
2022/02/23 12:56:47;;;;;;;6.97;1.38;;;;;;;;;;5053987;28;20028;-60
2022/02/23 12:59:15;;;;;;;5.03;1.40;;;;;;;;;;5050808;28;20039;-60
2022/02/23 13:01:46;;;;;;;4.93;1.08;;;;;;;;;;5050411;28;20117;-60
2022/02/23 13:04:20;;;;;;;7.63;1.45;;;;;;;;;;5055017;28;20127;-61
2022/02/23 13:06:51;;;;;;;7.07;1.80;;;;;;;;;;5055310;28;20127;-61
2022/02/23 13:09:20;;;;;;;5.90;1.35;;;;;;;;;;5057466;28;20530;-60
2022/02/23 13:11:49;;;;;;;7.47;1.50;;;;;;;;;;5054134;28;20401;-60
2022/02/23 13:14:16;;;;;;;7.35;1.52;;;;;;;;;;5058179;28;20051;-61
2022/02/23 13:16:45;;;;;;;6.45;1.33;;;;;;;;;;5062771;28;20025;-61
2022/02/23 13:19:16;;;;;;;5.00;1.02;;;;;;;;;;5054653;28;20024;-61
2022/02/23 13:21:55;;;;;;;16.88;2.97;;;;;;;;;;5055949;28;20028;-61
2022/02/23 13:24:35;;;;;;;4.85;1.08;;;;;;;;;;5053152;28;20290;-60
2022/02/23 13:27:05;;;;;;;4.68;1.17;;;;;;;;;;5050000;28;20861;-61
2022/02/23 13:29:32;;;;;;;8.65;1.30;;;;;;;;;;5056379;28;20591;-62
2022/02/23 13:32:04;;;;;;;4.15;1.25;;;;;;;;;;5056499;28;20111;-60
2022/02/23 13:34:32;;;;;;;4.30;0.90;;;;;;;;;;5063487;28;20036;-60
2022/02/23 13:37:00;;;;;;;5.50;1.38;;;;;;;;;;5054522;28;20032;-60
2022/02/23 13:39:55;;;;;;;15.85;1.52;;;;;;;;;;5060326;28;20154;-60
2022/02/23 13:42:33;;;;;;;7.80;0.95;;;;;;;;;;5050030;28;20041;-61
2022/02/23 13:45:15;;;;;;;8.05;1.20;;;;;;;;;;5051460;28;20099;-61
2022/02/23 13:47:53;;;;;;;3.40;1.20;;;;;;;;;;5054885;28;20506;-60
2022/02/23 13:50:21;;;;;;;8.70;1.33;;;;;;;;;;5060460;28;20090;-62
2022/02/23 13:52:47;;;;;;;4.93;1.27;;;;;;;;;;5053883;28;20032;-61
2022/02/23 13:55:26;;;;;;;6.50;1.70;;;;;;;;;;5060984;28;20093;-63
2022/02/23 13:58:04;;;;;;;5.60;1.52;;;;;;;;;;5059043;28;20036;-62
2022/02/23 14:00:59;;;;;;;8.07;1.88;;;;;;;;;;5063003;28;20125;-63
2022/02/23 14:03:37;;;;;;;4.15;1.13;;;;;;;;;;5050592;28;20055;-62
2022/02/23 14:06:07;;;;;;;6.70;1.40;;;;;;;;;;5055276;28;20028;-61
2022/02/23 14:08:56;;;;;;;6.53;1.05;;;;;;;;;;5058583;28;20555;-61
2022/02/23 14:11:24;;;;;;;4.80;0.90;;;;;;;;;;5053708;28;20406;-62
2022/02/23 14:13:53;;;;;;;2.65;0.98;;;;;;;;;;5057703;28;20033;-61
2022/02/23 14:16:20;;;;;;;2.92;1.02;;;;;;;;;;5061715;28;20055;-61
2022/02/23 14:18:48;;;;;;;4.60;1.20;;;;;;;;;;5063663;28;20165;-62
2022/02/23 14:21:14;;;;;;;4.20;0.98;;;;;;;;;;5051233;28;20492;-62
2022/02/23 14:23:39;;;;;;;6.32;1.27;;;;;;;;;;5063370;28;20048;-61
2022/02/23 14:26:10;;;;;;;11.30;1.63;;;;;;;;;;5059801;28;20059;-62
2022/02/23 14:28:46;;;;;;;6.13;1.13;;;;;;;;;;5054692;28;20287;-62
2022/02/23 14:31:21;;;;;;;7.68;1.38;;;;;;;;;;5052327;28;20037;-61
2022/02/23 14:33:47;;;;;;;7.88;1.55;;;;;;;;;;5055492;28;20119;-62
2022/02/23 14:36:13;;;;;;;6.20;1.63;;;;;;;;;;5061663;28;20040;-63
2022/02/23 14:38:39;;;;;;;13.55;2.63;;;;;;;;;;5060330;28;20039;-63
2022/02/23 14:41:05;;;;;;;8.50;1.35;;;;;;;;;;5056859;28;20029;-63
2022/02/23 14:43:31;;;;;;;9.98;1.38;;;;;;;;;;5054102;28;20039;-63
2022/02/23 14:45:56;;;;;;;6.78;1.50;;;;;;;;;;5059037;28;22284;-61
2022/02/23 14:48:22;;;;;;;10.07;1.63;;;;;;;;;;5058226;28;20479;-63